createdAt,value
2018-06-22T00:02:19.367Z,97956.50
2018-06-22T00:04:48.044Z,97950.05
2018-06-22T00:07:16.562Z,97956.63
2018-06-22T00:09:45.065Z,97960.20
2018-06-22T00:12:13.700Z,97961.12
2018-06-22T00:14:42.208Z,97952.13
2018-06-22T00:17:11.287Z,97958.77
2018-06-22T00:19:39.880Z,97958.81
2018-06-22T00:22:08.437Z,97952.57
2018-06-22T00:24:37.044Z,97961.44
2018-06-22T00:27:05.768Z,97957.47
2018-06-22T00:29:34.384Z,97952.77
2018-06-22T00:32:02.923Z,97960.61
2018-06-22T00:34:31.461Z,97962.36
2018-06-22T00:37:00.216Z,97958.89
2018-06-22T00:39:28.832Z,97960.13
2018-06-22T00:41:57.396Z,97962.64
2018-06-22T00:44:26.015Z,97963.52
2018-06-22T00:46:54.579Z,97963.08
2018-06-22T00:49:23.307Z,97964.71
2018-06-22T00:51:51.965Z,97964.06
2018-06-22T00:54:20.548Z,97970.92
2018-06-22T00:56:49.215Z,97971.08
2018-06-22T00:59:17.896Z,97973.27
2018-06-22T01:01:47.166Z,97974.75
2018-06-22T01:04:15.791Z,97978.39
2018-06-22T01:06:44.471Z,97975.20
2018-06-22T01:09:14.154Z,97976.08
2018-06-22T01:11:42.774Z,97977.12
2018-06-22T01:14:11.608Z,97965.75
2018-06-22T01:16:40.265Z,97983.56
2018-06-22T01:19:09.468Z,97978.22
2018-06-22T01:21:38.265Z,97982.11
2018-06-22T01:24:07.399Z,97984.69
2018-06-22T01:26:36.165Z,97984.55
2018-06-22T01:29:10.091Z,97993.05
2018-06-22T01:31:38.739Z,97992.90
2018-06-22T01:34:07.417Z,97991.25
2018-06-22T01:36:36.297Z,97993.34
2018-06-22T01:39:07.548Z,97987.18
2018-06-22T01:41:36.110Z,97988.99
2018-06-22T01:44:04.723Z,97984.32
2018-06-22T01:46:33.886Z,97987.63
2018-06-22T01:49:02.587Z,97992.31
2018-06-22T01:51:31.192Z,97993.53
2018-06-22T01:53:59.938Z,97999.50
2018-06-22T01:56:28.584Z,98004.14
2018-06-22T01:58:57.213Z,98005.14
2018-06-22T02:01:25.873Z,98007.84
2018-06-22T02:03:54.619Z,98003.50
2018-06-22T02:06:23.191Z,98007.61
2018-06-22T02:08:52.378Z,98002.73
2018-06-22T02:11:20.959Z,98007.02
2018-06-22T02:13:49.640Z,98003.10
2018-06-22T02:16:18.267Z,98002.96
2018-06-22T02:18:46.971Z,98008.58
2018-06-22T02:21:15.743Z,98006.81
2018-06-22T02:23:44.284Z,98008.88
2018-06-22T02:26:12.868Z,98006.84
2018-06-22T02:28:41.480Z,98014.02
2018-06-22T02:31:10.144Z,98015.75
2018-06-22T02:33:38.984Z,98016.70
2018-06-22T02:36:08.398Z,98014.69
2018-06-22T02:38:37.218Z,98022.13
2018-06-22T02:41:07.213Z,98016.74
2018-06-22T02:43:36.415Z,98019.53
2018-06-22T02:46:05.382Z,98017.43
2018-06-22T02:48:34.135Z,98021.88
2018-06-22T02:51:02.690Z,98028.05
2018-06-22T02:53:31.313Z,98024.73
2018-06-22T02:56:00.211Z,98030.16
2018-06-22T02:58:29.112Z,98029.26
2018-06-22T03:00:57.755Z,98028.27
2018-06-22T03:03:26.323Z,98026.63
2018-06-22T03:05:54.960Z,98023.27
2018-06-22T03:08:23.599Z,98029.99
2018-06-22T03:10:52.218Z,98030.36
2018-06-22T03:13:20.763Z,98033.71
2018-06-22T03:15:49.347Z,98034.42
2018-06-22T03:18:17.980Z,98032.71
2018-06-22T03:20:46.620Z,98027.99
2018-06-22T03:23:15.559Z,98030.12
2018-06-22T03:25:44.206Z,98030.30
2018-06-22T03:28:12.780Z,98034.69
2018-06-22T03:30:41.382Z,98028.86
2018-06-22T03:33:10.072Z,98039.24
2018-06-22T03:35:38.888Z,98039.53
2018-06-22T03:38:07.524Z,98046.22
2018-06-22T03:40:36.104Z,98043.34
2018-06-22T03:43:04.745Z,98045.93
2018-06-22T03:45:33.486Z,98045.95
2018-06-22T03:48:02.196Z,98043.34
2018-06-22T03:50:30.968Z,98039.70
2018-06-22T03:52:59.664Z,98045.88
2018-06-22T03:55:28.476Z,98044.92
2018-06-22T03:57:57.460Z,98041.80
2018-06-22T04:00:26.140Z,98038.49
2018-06-22T04:02:54.692Z,98041.80
2018-06-22T04:05:23.341Z,98040.25
2018-06-22T04:07:52.084Z,98045.95
2018-06-22T04:10:20.675Z,98047.59
2018-06-22T04:12:49.395Z,98047.39
2018-06-22T04:15:18.553Z,98045.91
2018-06-22T04:17:54.720Z,98054.80
2018-06-22T04:20:24.732Z,98051.89
2018-06-22T04:22:54.160Z,98054.06
2018-06-22T04:25:24.034Z,98054.22
2018-06-22T04:27:53.164Z,98047.38
2018-06-22T04:30:21.837Z,98046.78
2018-06-22T04:32:51.489Z,98055.39
2018-06-22T04:35:20.122Z,98048.66
2018-06-22T04:37:48.660Z,98052.84
2018-06-22T04:40:17.435Z,98059.38
2018-06-22T04:42:46.173Z,98059.92
2018-06-22T04:45:14.832Z,98060.22
2018-06-22T04:47:43.576Z,98058.98
2018-06-22T04:50:12.210Z,98060.95
2018-06-22T04:52:40.946Z,98069.45
2018-06-22T04:55:09.646Z,98069.31
2018-06-22T04:57:38.267Z,98061.36
2018-06-22T05:00:07.148Z,98065.49
2018-06-22T05:02:35.735Z,98064.23
2018-06-22T05:05:04.328Z,98060.23
2018-06-22T05:07:32.898Z,98063.51
2018-06-22T05:10:01.493Z,98060.77
2018-06-22T05:12:30.112Z,98065.23
2018-06-22T05:14:58.661Z,98054.75
2018-06-22T05:17:27.424Z,98053.27
2018-06-22T05:19:56.033Z,98054.81
2018-06-22T05:22:24.617Z,98055.93
2018-06-22T05:24:53.288Z,98059.31
2018-06-22T05:27:21.986Z,98065.31
2018-06-22T05:29:50.818Z,98068.23
2018-06-22T05:32:19.584Z,98061.20
2018-06-22T05:34:48.151Z,98057.28
2018-06-22T05:37:16.744Z,98054.03
2018-06-22T05:39:45.307Z,98055.52
2018-06-22T05:42:13.911Z,98050.77
2018-06-22T05:44:42.452Z,98054.36
2018-06-22T05:47:11.055Z,98060.25
2018-06-22T05:49:39.675Z,98059.38
2018-06-22T05:52:08.505Z,98063.84
2018-06-22T05:54:37.463Z,98070.76
2018-06-22T05:57:06.140Z,98071.08
2018-06-22T05:59:34.690Z,98060.77
2018-06-22T06:02:03.307Z,98061.99
2018-06-22T06:04:31.887Z,98056.41
2018-06-22T06:07:00.487Z,98057.86
2018-06-22T06:09:29.124Z,98053.26
2018-06-22T06:11:57.807Z,98053.85
2018-06-22T06:14:26.383Z,98049.19
2018-06-22T06:16:55.143Z,98047.91
2018-06-22T06:19:23.855Z,98049.77
2018-06-22T06:21:52.561Z,98054.30
2018-06-22T06:24:21.367Z,98055.63
2018-06-22T06:26:50.021Z,98059.05
2018-06-22T06:29:18.620Z,98060.77
2018-06-22T06:31:47.667Z,98057.62
2018-06-22T06:34:16.300Z,98050.35
2018-06-22T06:36:44.891Z,98067.14
2018-06-22T06:39:13.529Z,98068.23
2018-06-22T06:41:42.156Z,98072.33
2018-06-22T06:44:10.992Z,98066.88
2018-06-22T06:46:39.952Z,98072.34
2018-06-22T06:49:08.503Z,98067.59
2018-06-22T06:51:37.096Z,98075.84
2018-06-22T06:54:05.931Z,98079.87
2018-06-22T06:56:34.616Z,98083.95
2018-06-22T06:59:03.488Z,98081.14
2018-06-22T07:01:32.480Z,98084.00
2018-06-22T07:04:02.000Z,98083.02
2018-06-22T07:06:30.643Z,98087.13
2018-06-22T07:08:59.375Z,98080.52
2018-06-22T07:11:28.120Z,98078.97
2018-06-22T07:13:56.766Z,98074.79
2018-06-22T07:16:25.322Z,98067.28
2018-06-22T07:18:53.860Z,98072.70
2018-06-22T07:21:22.656Z,98067.92
2018-06-22T07:23:51.352Z,98075.11
2018-06-22T07:26:20.021Z,98081.53
2018-06-22T07:28:48.865Z,98078.97
2018-06-22T07:31:17.487Z,98080.89
2018-06-22T07:33:46.673Z,98079.95
2018-06-22T07:36:15.379Z,98082.31
2018-06-22T07:38:44.000Z,98081.40
2018-06-22T07:41:12.699Z,98093.11
2018-06-22T07:43:41.224Z,98093.70
2018-06-22T07:46:09.804Z,98100.20
2018-06-22T07:48:38.407Z,98095.55
2018-06-22T07:51:06.940Z,98097.27
2018-06-22T07:53:35.600Z,98101.89
2018-06-22T07:56:04.196Z,98108.33
2018-06-22T07:58:32.993Z,98104.34
2018-06-22T08:01:01.727Z,98089.69
2018-06-22T08:03:30.308Z,98084.88
2018-06-22T08:05:58.965Z,98085.00
2018-06-22T08:08:27.595Z,98081.81
2018-06-22T08:10:56.721Z,98092.50
2018-06-22T08:13:25.543Z,98095.94
2018-06-22T08:15:54.216Z,98080.00
2018-06-22T08:18:22.801Z,98080.88
2018-06-22T08:20:51.427Z,98089.75
2018-06-22T08:23:20.251Z,98085.34
2018-06-22T08:25:48.951Z,98068.69
2018-06-22T08:28:17.571Z,98066.45
2018-06-22T08:30:46.180Z,98061.56
2018-06-22T08:33:14.947Z,98072.73
2018-06-22T08:35:43.560Z,98076.89
2018-06-22T08:38:12.244Z,98074.25
2018-06-22T08:40:40.819Z,98079.22
2018-06-22T08:43:09.616Z,98086.11
2018-06-22T08:45:38.289Z,98089.55
2018-06-22T08:48:07.006Z,98087.92
2018-06-22T08:50:35.672Z,98099.55
2018-06-22T08:53:04.224Z,98099.06
2018-06-22T08:55:32.813Z,98097.69
2018-06-22T08:58:01.423Z,98100.63
2018-06-22T09:00:30.149Z,98107.80
2018-06-22T09:02:58.876Z,98099.97
2018-06-22T09:05:28.372Z,98107.77
2018-06-22T09:07:57.137Z,98105.77
2018-06-22T09:10:26.115Z,98112.20
2018-06-22T09:12:54.827Z,98109.20
2018-06-22T09:15:23.423Z,98106.41
2018-06-22T09:17:51.972Z,98109.84
2018-06-22T09:20:20.540Z,98124.98
2018-06-22T09:22:49.148Z,98123.10
2018-06-22T09:25:17.958Z,98120.91
2018-06-22T09:27:46.686Z,98121.87
2018-06-22T09:30:15.227Z,98134.34
2018-06-22T09:32:43.835Z,98122.98
2018-06-22T09:35:12.399Z,98118.16
2018-06-22T09:37:41.015Z,98120.43
2018-06-22T09:40:09.564Z,98115.74
2018-06-22T09:42:38.220Z,98109.70
2018-06-22T09:45:06.979Z,98107.02
2018-06-22T09:47:35.724Z,98091.58
2018-06-22T09:50:04.548Z,98092.69
2018-06-22T09:52:33.244Z,98094.05
2018-06-22T09:55:01.898Z,98093.83
2018-06-22T09:57:30.488Z,98079.92
2018-06-22T09:59:59.052Z,98086.26
2018-06-22T10:02:27.901Z,98084.18
2018-06-22T10:04:56.535Z,98089.41
2018-06-22T10:07:25.104Z,98082.43
2018-06-22T10:09:53.719Z,98081.59
2018-06-22T10:12:22.512Z,98087.87
2018-06-22T10:14:51.191Z,98091.79
2018-06-22T10:17:19.764Z,98093.02
2018-06-22T10:19:48.292Z,98097.71
2018-06-22T10:22:16.853Z,98100.07
2018-06-22T10:24:45.408Z,98099.11
2018-06-22T10:27:14.428Z,98096.24
2018-06-22T10:29:42.970Z,98096.96
2018-06-22T10:32:11.563Z,98108.55
2018-06-22T10:34:40.506Z,98114.22
2018-06-22T10:37:09.260Z,98110.44
2018-06-22T10:39:37.983Z,98104.85
2018-06-22T10:42:06.968Z,98110.92
2018-06-22T10:44:35.600Z,98109.12
2018-06-22T10:47:04.376Z,98104.58
2018-06-22T10:49:32.979Z,98111.66
2018-06-22T10:52:01.943Z,98101.31
2018-06-22T10:54:30.558Z,98106.78
2018-06-22T10:57:01.204Z,98104.33
2018-06-22T10:59:30.056Z,98102.28
2018-06-22T11:01:58.652Z,98091.33
2018-06-22T11:04:27.234Z,98097.38
2018-06-22T11:06:56.028Z,98097.59
2018-06-22T11:09:24.823Z,98093.82
2018-06-22T11:11:54.100Z,98106.13
2018-06-22T11:14:22.624Z,98110.63
2018-06-22T11:16:51.468Z,98097.64
2018-06-22T11:19:20.304Z,98093.38
2018-06-22T11:21:48.938Z,98093.23
2018-06-22T11:24:17.615Z,98092.52
2018-06-22T11:26:46.264Z,98091.08
2018-06-22T11:29:14.848Z,98095.61
2018-06-22T11:31:43.515Z,98095.14
2018-06-22T11:34:12.154Z,98100.69
2018-06-22T11:36:40.853Z,98093.14
2018-06-22T11:39:11.028Z,98088.77
2018-06-22T11:41:40.747Z,98088.28
2018-06-22T11:44:09.836Z,98090.89
2018-06-22T11:46:38.923Z,98092.16
2018-06-22T11:49:07.853Z,98092.30
2018-06-22T11:51:36.542Z,98093.26
2018-06-22T11:54:05.226Z,98090.17
2018-06-22T11:56:33.812Z,98088.70
2018-06-22T11:59:02.442Z,98087.00
2018-06-22T12:01:31.080Z,98088.30
2018-06-22T12:03:59.739Z,98082.34
2018-06-22T12:06:28.572Z,98079.20
2018-06-22T12:08:57.294Z,98090.44
2018-06-22T12:11:25.975Z,98089.67
2018-06-22T12:13:54.711Z,98092.66
2018-06-22T12:16:23.294Z,98099.78
2018-06-22T12:18:52.724Z,98097.66
2018-06-22T12:21:21.379Z,98091.33
2018-06-22T12:23:49.997Z,98094.01
2018-06-22T12:26:18.736Z,98099.96
2018-06-22T12:28:47.375Z,98082.65
2018-06-22T12:31:16.232Z,98082.22
2018-06-22T12:33:44.839Z,98086.20
2018-06-22T12:36:13.692Z,98084.52
2018-06-22T12:38:42.385Z,98075.28
2018-06-22T12:41:11.128Z,98083.29
2018-06-22T12:43:39.759Z,98080.77
2018-06-22T12:46:08.443Z,98085.80
2018-06-22T12:48:37.066Z,98090.45
2018-06-22T12:51:05.728Z,98086.08
2018-06-22T12:53:34.461Z,98081.88
2018-06-22T12:56:03.204Z,98091.93
2018-06-22T12:58:31.875Z,98087.11
2018-06-22T13:01:00.504Z,98084.85
2018-06-22T13:03:29.148Z,98089.47
2018-06-22T13:05:57.830Z,98087.00
2018-06-22T13:08:26.730Z,98088.89
2018-06-22T13:10:55.715Z,98086.61
2018-06-22T13:13:24.312Z,98090.73
2018-06-22T13:15:52.927Z,98091.94
2018-06-22T13:18:21.667Z,98081.81
2018-06-22T13:20:50.341Z,98076.89
2018-06-22T13:23:19.080Z,98086.45
2018-06-22T13:25:47.740Z,98095.31
2018-06-22T13:28:16.307Z,98087.58
2018-06-22T13:30:44.937Z,98086.16
2018-06-22T13:33:14.192Z,98083.91
2018-06-22T13:35:43.345Z,98080.16
2018-06-22T13:38:11.981Z,98081.97
2018-06-22T13:40:40.708Z,98088.94
2018-06-22T13:43:09.397Z,98089.98
2018-06-22T13:45:38.620Z,98088.55
2018-06-22T13:48:07.804Z,98085.16
2018-06-22T13:50:36.459Z,98088.06
2018-06-22T13:53:05.315Z,98087.83
2018-06-22T13:55:33.936Z,98084.13
2018-06-22T13:58:02.894Z,98095.34
2018-06-22T14:00:31.507Z,98089.61
2018-06-22T14:03:00.487Z,98095.58
2018-06-22T14:05:34.255Z,98094.80
2018-06-22T14:08:02.963Z,98088.20
2018-06-22T14:10:31.598Z,98087.33
2018-06-22T14:13:00.333Z,98093.56
2018-06-22T14:15:29.030Z,98095.81
2018-06-22T14:17:57.671Z,98099.11
2018-06-22T14:20:26.392Z,98105.83
2018-06-22T14:22:55.096Z,98088.04
2018-06-22T14:25:23.912Z,98098.20
2018-06-22T14:27:52.613Z,98094.67
2018-06-22T14:30:21.296Z,98096.28
2018-06-22T14:32:50.031Z,98100.20
2018-06-22T14:35:18.725Z,98102.95
2018-06-22T14:37:47.398Z,98103.30
2018-06-22T14:40:18.049Z,98105.06
2018-06-22T14:42:49.035Z,98113.23
2018-06-22T14:45:19.488Z,98111.27
2018-06-22T14:47:49.502Z,98106.27
2018-06-22T14:50:20.063Z,98109.38
2018-06-22T14:52:50.859Z,98109.79
2018-06-22T14:55:26.695Z,98104.86
2018-06-22T14:58:00.624Z,98103.81
2018-06-22T15:00:40.704Z,98104.16
2018-06-22T15:03:15.084Z,98104.63
2018-06-22T15:05:51.188Z,98101.13
2018-06-22T15:08:22.723Z,98109.97
2018-06-22T15:10:52.418Z,98110.39
2018-06-22T15:13:22.320Z,98107.66
2018-06-22T15:15:53.037Z,98104.25
2018-06-22T15:18:21.872Z,98104.94
2018-06-22T15:20:50.971Z,98108.84
2018-06-22T15:23:22.706Z,98111.30
2018-06-22T15:25:54.557Z,98109.81
2018-06-22T15:28:24.162Z,98112.40
2018-06-22T15:30:54.842Z,98110.17
2018-06-22T15:33:29.048Z,98106.23
2018-06-22T15:36:03.731Z,98112.81
2018-06-22T15:38:38.651Z,98105.87
2018-06-22T15:41:12.789Z,98112.25
2018-06-22T15:43:46.769Z,98103.06
2018-06-22T15:46:23.305Z,98103.02
2018-06-22T15:48:57.759Z,98103.69
2018-06-22T15:51:32.269Z,98113.45
2018-06-22T15:54:07.621Z,98110.73
2018-06-22T15:56:36.688Z,98114.45
2018-06-22T15:59:08.341Z,98116.95
2018-06-22T16:01:38.227Z,98112.13
2018-06-22T16:04:13.268Z,98113.34
2018-06-22T16:06:42.308Z,98118.26
2018-06-22T16:09:11.712Z,98116.22
2018-06-22T16:11:40.560Z,98109.25
2018-06-22T16:14:14.504Z,98108.80
2018-06-22T16:16:48.491Z,98114.25
2018-06-22T16:20:22.086Z,98114.00
2018-06-22T16:22:56.448Z,98113.88
2018-06-22T16:25:30.619Z,98114.67
2018-06-22T16:28:00.763Z,98116.63
2018-06-22T16:30:29.875Z,98121.70
2018-06-22T16:32:58.929Z,98125.01
2018-06-22T16:35:27.820Z,98121.98
2018-06-22T16:37:56.793Z,98124.42
2018-06-22T16:40:25.529Z,98117.52
2018-06-22T16:42:54.202Z,98112.83
2018-06-22T16:45:23.039Z,98104.44
2018-06-22T16:47:51.699Z,98098.46
2018-06-22T16:50:20.554Z,98105.75
2018-06-22T16:52:49.513Z,98107.95
2018-06-22T16:55:18.347Z,98110.30
2018-06-22T16:57:47.018Z,98113.81
2018-06-22T17:00:15.570Z,98108.92
2018-06-22T17:02:44.379Z,98118.20
2018-06-22T17:05:13.317Z,98114.03
2018-06-22T17:07:47.226Z,98117.77
2018-06-22T17:10:21.083Z,98114.08
2018-06-22T17:12:55.227Z,98115.45
2018-06-22T17:15:29.739Z,98119.50
2018-06-22T17:18:03.412Z,98119.83
2018-06-22T17:20:32.011Z,98115.33
2018-06-22T17:23:00.664Z,98114.81
2018-06-22T17:25:29.476Z,98122.81
2018-06-22T17:27:58.124Z,98116.38
2018-06-22T17:30:26.765Z,98119.58
2018-06-22T17:32:55.412Z,98116.00
2018-06-22T17:35:24.091Z,98122.62
2018-06-22T17:37:52.899Z,98125.48
2018-06-22T17:40:21.437Z,98124.52
2018-06-22T17:42:50.104Z,98128.95
2018-06-22T17:45:18.880Z,98121.53
2018-06-22T17:47:47.434Z,98123.51
2018-06-22T17:50:35.822Z,98124.41
2018-06-22T17:53:04.835Z,98124.40
2018-06-22T17:55:33.521Z,98124.48
2018-06-22T17:58:02.488Z,98124.34
2018-06-22T18:00:36.249Z,98119.80
2018-06-22T18:03:11.317Z,98123.94
2018-06-22T18:05:53.168Z,98130.72
2018-06-22T18:08:28.597Z,98126.95
2018-06-22T18:11:02.561Z,98129.24
2018-06-22T18:13:31.211Z,98126.17
2018-06-22T18:15:59.766Z,98128.41
2018-06-22T18:18:28.558Z,98125.77
2018-06-22T18:20:57.483Z,98128.41
2018-06-22T18:23:26.144Z,98132.84
2018-06-22T18:25:54.882Z,98131.27
2018-06-22T18:28:23.571Z,98138.63
2018-06-22T18:30:52.211Z,98135.63
2018-06-22T18:33:20.868Z,98135.73
2018-06-22T18:35:49.476Z,98138.19
2018-06-22T18:38:18.500Z,98142.38
2018-06-22T18:40:47.208Z,98145.66
2018-06-22T18:43:21.115Z,98144.54
2018-06-22T18:45:49.877Z,98140.97
2018-06-22T18:48:18.513Z,98145.61
2018-06-22T18:50:47.125Z,98156.58
2018-06-22T18:53:21.112Z,98154.25
2018-06-22T18:55:55.100Z,98147.00
2018-06-22T18:58:28.968Z,98149.45
2018-06-22T19:01:02.965Z,98147.17
2018-06-22T19:03:36.676Z,98146.09
2018-06-22T19:06:05.479Z,98153.05
2018-06-22T19:08:34.115Z,98147.42
2018-06-22T19:11:02.851Z,98152.23
2018-06-22T19:13:31.496Z,98151.02
2018-06-22T19:16:00.383Z,98154.80
2018-06-22T19:18:29.759Z,98160.78
2018-06-22T19:20:58.359Z,98155.36
2018-06-22T19:23:31.911Z,98161.92
2018-06-22T19:26:00.567Z,98161.88
2018-06-22T19:28:29.251Z,98155.88
2018-06-22T19:30:58.068Z,98159.41
2018-06-22T19:33:27.124Z,98167.39
2018-06-22T19:35:55.835Z,98168.77
2018-06-22T19:38:24.929Z,98170.49
2018-06-22T19:40:53.958Z,98176.30
2018-06-22T19:43:27.759Z,98174.63
2018-06-22T19:46:01.985Z,98175.86
2018-06-22T19:48:35.731Z,98178.63
2018-06-22T19:51:09.701Z,98182.33
2018-06-22T19:53:43.748Z,98188.67
2018-06-22T19:56:12.575Z,98186.31
2018-06-22T19:58:41.300Z,98185.10
2018-06-22T20:01:09.892Z,98187.11
2018-06-22T20:03:38.623Z,98187.77
2018-06-22T20:06:07.442Z,98186.77
2018-06-22T20:08:36.337Z,98191.86
2018-06-22T20:11:05.068Z,98188.27
2018-06-22T20:13:33.632Z,98190.71
2018-06-22T20:16:02.289Z,98189.80
2018-06-22T20:18:30.918Z,98197.25
2018-06-22T20:20:59.523Z,98197.97
2018-06-22T20:23:28.200Z,98198.28
2018-06-22T20:25:56.871Z,98204.05
2018-06-22T20:28:25.729Z,98195.77
2018-06-22T20:30:54.670Z,98202.67
2018-06-22T20:33:23.444Z,98204.78
2018-06-22T20:35:57.357Z,98211.08
2018-06-22T20:38:31.661Z,98210.02
2018-06-22T20:41:05.540Z,98214.62
2018-06-22T20:43:39.831Z,98215.05
2018-06-22T20:46:08.433Z,98216.13
2018-06-22T20:48:43.708Z,98219.49
2018-06-22T20:51:14.003Z,98220.21
2018-06-22T20:53:42.652Z,98225.36
2018-06-22T20:56:11.381Z,98234.73
2018-06-22T20:58:40.081Z,98235.33
2018-06-22T21:01:08.955Z,98235.05
2018-06-22T21:03:37.547Z,98239.80
2018-06-22T21:06:06.419Z,98240.12
2018-06-22T21:08:35.291Z,98240.66
2018-06-22T21:11:04.227Z,98237.46
2018-06-22T21:13:32.935Z,98235.58
2018-06-22T21:16:01.492Z,98241.34
2018-06-22T21:18:30.336Z,98244.01
2018-06-22T21:21:04.186Z,98242.52
2018-06-22T21:23:33.732Z,98247.88
2018-06-22T21:26:03.067Z,98244.53
2018-06-22T21:28:36.911Z,98250.39
2018-06-22T21:31:10.677Z,98252.83
2018-06-22T21:33:45.121Z,98253.16
2018-06-22T21:36:19.003Z,98254.47
2018-06-22T21:38:52.901Z,98251.22
2018-06-22T21:41:22.455Z,98247.84
2018-06-22T21:43:51.103Z,98249.14
2018-06-22T21:46:19.748Z,98253.30
2018-06-22T21:48:48.426Z,98253.76
2018-06-22T21:51:17.392Z,98254.34
2018-06-22T21:53:46.152Z,98250.84
2018-06-22T21:56:14.777Z,98255.96
2018-06-22T21:58:43.516Z,98251.67
2018-06-22T22:01:12.180Z,98250.97
2018-06-22T22:03:41.240Z,98245.91
2018-06-22T22:06:09.828Z,98249.63
2018-06-22T22:08:38.411Z,98248.76
2018-06-22T22:11:07.991Z,98252.51
2018-06-22T22:13:37.455Z,98252.38
2018-06-22T22:16:06.994Z,98254.18
2018-06-22T22:18:35.639Z,98252.94
2018-06-22T22:21:04.387Z,98247.48
2018-06-22T22:23:33.049Z,98243.19
2018-06-22T22:26:01.772Z,98245.73
2018-06-22T22:28:30.647Z,98240.82
2018-06-22T22:30:59.276Z,98245.48
2018-06-22T22:33:27.967Z,98236.84
2018-06-22T22:35:56.612Z,98237.20
2018-06-22T22:38:25.201Z,98234.43
2018-06-22T22:40:53.776Z,98227.70
2018-06-22T22:43:22.392Z,98225.48
2018-06-22T22:45:51.308Z,98222.88
2018-06-22T22:48:19.861Z,98227.63
2018-06-22T22:50:49.202Z,98229.23
2018-06-22T22:53:17.911Z,98230.58
2018-06-22T22:55:46.507Z,98228.47
2018-06-22T22:58:15.343Z,98226.32
2018-06-22T23:00:44.000Z,98228.06
2018-06-22T23:03:12.638Z,98226.42
2018-06-22T23:05:41.289Z,98228.04
2018-06-22T23:08:09.959Z,98226.50
2018-06-22T23:10:38.883Z,98216.32
2018-06-22T23:13:07.461Z,98219.86
2018-06-22T23:15:36.112Z,98218.44
2018-06-22T23:18:04.784Z,98215.13
2018-06-22T23:20:33.352Z,98211.02
2018-06-22T23:23:13.580Z,98216.09
2018-06-22T23:25:42.320Z,98209.68
2018-06-22T23:28:11.016Z,98212.89
2018-06-22T23:30:39.636Z,98218.63
2018-06-22T23:33:08.340Z,98219.98
2018-06-22T23:35:37.060Z,98220.33
2018-06-22T23:38:06.372Z,98216.54
2018-06-22T23:40:34.952Z,98215.16
2018-06-22T23:43:03.679Z,98216.33
2018-06-22T23:45:32.383Z,98215.61
2018-06-22T23:48:01.208Z,98214.75
2018-06-22T23:50:29.989Z,98208.48
2018-06-22T23:52:58.632Z,98208.23
2018-06-22T23:55:27.412Z,98206.70
2018-06-22T23:57:56.009Z,98210.28
